Time;durP1;ratioP1;P1;durP2;ratioP2;P2;SDS_P1;SDS_P2;PMS_P1;PMS_P2;Temp;Humidity;BMP_temperature;BMP_pressure;BME280_temperature;BME280_humidity;BME280_pressure;Samples;Min_cycle;Max_cycle;Signal;HPM_P1;HPM_P2
2023/11/17 00:02:02;;;;;;;0.32;0.32;;;17.40;74.10;;;;;;4934528;28;20050;-79
2023/11/17 00:04:28;;;;;;;1.42;0.20;;;17.40;74.20;;;;;;4965812;28;20094;-79
2023/11/17 00:06:54;;;;;;;0.30;0.30;;;17.40;74.10;;;;;;4948188;28;20047;-79
2023/11/17 00:09:20;;;;;;;0.40;0.40;;;17.40;74.80;;;;;;4967549;28;20409;-79
2023/11/17 00:11:45;;;;;;;0.38;0.30;;;17.40;74.00;;;;;;4966192;28;20129;-80
2023/11/17 00:14:11;;;;;;;0.57;0.40;;;17.40;73.80;;;;;;4967048;28;20420;-80
2023/11/17 00:16:37;;;;;;;0.45;0.30;;;17.40;73.90;;;;;;4949045;28;20051;-80
2023/11/17 00:19:05;;;;;;;0.40;0.40;;;17.50;74.00;;;;;;4966294;28;21849;-80
2023/11/17 00:21:31;;;;;;;0.25;0.20;;;17.40;73.80;;;;;;4965167;28;20472;-80
2023/11/17 00:23:57;;;;;;;0.47;0.40;;;17.40;73.80;;;;;;4965366;28;20509;-80
2023/11/17 00:26:23;;;;;;;0.52;0.30;;;17.40;73.80;;;;;;4963995;28;20150;-80
2023/11/17 00:28:50;;;;;;;0.47;0.47;;;17.40;73.90;;;;;;4966682;28;24835;-79
2023/11/17 00:31:15;;;;;;;0.20;0.20;;;17.40;73.90;;;;;;4964690;28;20129;-79
2023/11/17 00:33:41;;;;;;;0.57;0.28;;;17.40;73.80;;;;;;4966079;28;20114;-79
2023/11/17 00:36:12;;;;;;;0.38;0.30;;;17.40;73.80;;;;;;4963513;28;20054;-79
2023/11/17 00:38:38;;;;;;;0.20;0.20;;;17.40;73.80;;;;;;4949248;28;20046;-79
2023/11/17 00:41:04;;;;;;;0.30;0.30;;;17.40;73.80;;;;;;4966891;28;20409;-79
2023/11/17 00:43:30;;;;;;;0.50;0.50;;;17.40;73.70;;;;;;4965946;28;20077;-79
2023/11/17 00:45:58;;;;;;;0.28;0.28;;;17.40;73.70;;;;;;4960570;28;20087;-79
2023/11/17 00:48:27;;;;;;;0.35;0.30;;;17.30;73.70;;;;;;4969880;28;20433;-80
2023/11/17 00:50:53;;;;;;;0.52;0.30;;;17.30;73.70;;;;;;4954079;28;20525;-79
2023/11/17 00:53:23;;;;;;;0.45;0.45;;;17.40;73.80;;;;;;4966968;28;20054;-79
2023/11/17 00:56:10;;;;;;;0.43;0.40;;;17.30;73.60;;;;;;4955568;28;20412;-79
2023/11/17 00:58:36;;;;;;;0.57;0.50;;;17.30;73.70;;;;;;4952870;28;20047;-79
2023/11/17 01:01:02;;;;;;;0.50;0.40;;;17.30;73.60;;;;;;4971166;28;20035;-80
2023/11/17 01:03:27;;;;;;;0.57;0.20;;;17.30;73.60;;;;;;4968297;28;20432;-80
2023/11/17 01:05:53;;;;;;;0.95;0.38;;;17.30;73.60;;;;;;4967974;28;20039;-80
2023/11/17 01:08:22;;;;;;;0.57;0.30;;;17.30;73.60;;;;;;4967858;28;20047;-81
2023/11/17 01:10:48;;;;;;;0.82;0.40;;;17.30;73.50;;;;;;4967502;28;20070;-80
2023/11/17 01:13:13;;;;;;;0.45;0.35;;;17.30;73.50;;;;;;4964540;28;20051;-80
2023/11/17 01:15:39;;;;;;;0.38;0.28;;;17.40;73.60;;;;;;4970237;28;20100;-80
2023/11/17 01:18:05;;;;;;;0.73;0.40;;;17.30;73.60;;;;;;4968561;28;20054;-80
2023/11/17 01:20:32;;;;;;;0.30;0.30;;;17.30;73.70;;;;;;4965495;28;20513;-80
2023/11/17 01:23:01;;;;;;;0.82;0.30;;;17.30;73.50;;;;;;4965862;28;20050;-80
2023/11/17 01:25:28;;;;;;;0.45;0.40;;;17.30;73.60;;;;;;4967226;28;20378;-80
2023/11/17 01:27:54;;;;;;;0.30;0.30;;;17.30;73.50;;;;;;4969382;28;20520;-80
2023/11/17 01:30:19;;;;;;;0.28;0.25;;;17.30;73.50;;;;;;4967752;28;20053;-80
2023/11/17 01:32:45;;;;;;;1.25;0.30;;;17.30;73.50;;;;;;4968613;28;20535;-80
2023/11/17 01:35:11;;;;;;;0.50;0.30;;;17.30;73.60;;;;;;4968019;28;20041;-80
2023/11/17 01:37:36;;;;;;;0.40;0.38;;;17.30;73.60;;;;;;4969109;28;20035;-80
2023/11/17 01:40:05;;;;;;;0.30;0.30;;;17.40;73.60;;;;;;4968375;28;20058;-78
2023/11/17 01:42:32;;;;;;;0.30;0.25;;;17.30;73.50;;;;;;4968647;28;20432;-78
2023/11/17 01:44:57;;;;;;;0.43;0.43;;;17.30;73.50;;;;;;4967014;28;20131;-79
2023/11/17 01:47:23;;;;;;;0.50;0.40;;;17.30;73.40;;;;;;4968100;28;20113;-80
2023/11/17 01:49:49;;;;;;;0.50;0.50;;;17.30;73.40;;;;;;4952631;28;20054;-80
2023/11/17 01:52:14;;;;;;;0.28;0.20;;;17.30;73.40;;;;;;4951877;28;20035;-80
2023/11/17 01:54:40;;;;;;;0.82;0.20;;;17.30;73.40;;;;;;4968628;28;20023;-80
2023/11/17 01:57:05;;;;;;;0.95;0.30;;;17.30;73.40;;;;;;4965363;28;20038;-80
2023/11/17 01:59:31;;;;;;;0.30;0.30;;;17.30;73.30;;;;;;4949474;28;20062;-80
2023/11/17 02:01:56;;;;;;;0.95;0.30;;;17.30;73.30;;;;;;4951781;28;20054;-80
2023/11/17 02:04:22;;;;;;;0.30;0.30;;;17.30;73.20;;;;;;4969407;28;20042;-80
2023/11/17 02:06:56;;;;;;;0.20;0.20;;;17.30;73.40;;;;;;4965273;28;20046;-79
2023/11/17 02:09:22;;;;;;;0.30;0.25;;;17.30;73.30;;;;;;4948739;28;20094;-80
2023/11/17 02:12:03;;;;;;;0.30;0.30;;;17.30;73.40;;;;;;4967973;28;20043;-80
2023/11/17 02:14:35;;;;;;;0.32;0.20;;;17.30;73.40;;;;;;4965752;28;20050;-80
2023/11/17 02:17:03;;;;;;;0.35;0.30;;;17.30;73.30;;;;;;4957135;28;20035;-79
2023/11/17 02:19:33;;;;;;;0.30;0.30;;;17.30;73.20;;;;;;4967826;28;20134;-80
2023/11/17 02:21:59;;;;;;;0.63;0.30;;;17.30;73.30;;;;;;4985221;28;20117;-78
2023/11/17 02:24:30;;;;;;;0.30;0.22;;;17.30;73.30;;;;;;4968637;28;20131;-78
2023/11/17 02:27:06;;;;;;;0.55;0.30;;;17.30;73.30;;;;;;4952865;28;20049;-79
2023/11/17 02:29:37;;;;;;;0.20;0.20;;;17.30;73.30;;;;;;4967822;28;20046;-79
2023/11/17 02:32:04;;;;;;;0.30;0.30;;;17.30;73.40;;;;;;4966403;28;20054;-79
2023/11/17 02:34:30;;;;;;;0.40;0.40;;;17.30;73.20;;;;;;4967684;28;20105;-79
2023/11/17 02:36:58;;;;;;;0.60;0.40;;;17.30;73.10;;;;;;4949857;28;20035;-79
2023/11/17 02:39:29;;;;;;;0.25;0.22;;;17.30;73.20;;;;;;4966693;28;20778;-79
2023/11/17 02:41:58;;;;;;;0.30;0.30;;;17.30;73.20;;;;;;4968484;28;20034;-79
2023/11/17 02:44:28;;;;;;;0.17;0.17;;;17.30;73.20;;;;;;4966824;28;20129;-80
2023/11/17 02:47:03;;;;;;;0.85;0.25;;;17.20;73.20;;;;;;4967023;28;20046;-79
2023/11/17 02:49:34;;;;;;;0.30;0.30;;;17.20;73.20;;;;;;4951080;28;20410;-77
2023/11/17 02:52:03;;;;;;;0.50;0.30;;;17.20;73.20;;;;;;4966695;28;20066;-77
2023/11/17 02:54:29;;;;;;;0.32;0.30;;;17.30;73.20;;;;;;4968088;28;20137;-78
2023/11/17 02:56:54;;;;;;;0.32;0.22;;;17.20;73.20;;;;;;4963897;28;20520;-78
2023/11/17 02:59:20;;;;;;;0.25;0.20;;;17.20;73.20;;;;;;4967354;28;20039;-79
2023/11/17 03:01:46;;;;;;;0.20;0.20;;;17.20;73.20;;;;;;4967484;28;20356;-78
2023/11/17 03:04:15;;;;;;;0.30;0.30;;;17.20;73.10;;;;;;4968497;28;20061;-78
2023/11/17 03:06:48;;;;;;;0.40;0.22;;;17.20;73.20;;;;;;4963770;28;20049;-78
2023/11/17 03:09:15;;;;;;;0.50;0.27;;;17.20;73.20;;;;;;4965609;28;20050;-78
2023/11/17 03:11:41;;;;;;;0.40;0.28;;;17.20;73.10;;;;;;4982721;28;20394;-79
2023/11/17 03:14:10;;;;;;;0.17;0.17;;;17.20;73.10;;;;;;4966858;28;20046;-78
2023/11/17 03:16:37;;;;;;;0.20;0.20;;;17.20;73.10;;;;;;4965758;28;20062;-78
2023/11/17 03:19:03;;;;;;;0.28;0.25;;;17.20;73.90;;;;;;4950878;28;20101;-78
2023/11/17 03:21:28;;;;;;;1.38;0.35;;;17.20;73.00;;;;;;4968143;28;20046;-78
2023/11/17 03:23:54;;;;;;;0.38;0.30;;;17.20;73.00;;;;;;4967262;28;20056;-78
2023/11/17 03:26:20;;;;;;;0.88;0.30;;;17.20;73.70;;;;;;4948210;28;20043;-79
2023/11/17 03:28:45;;;;;;;0.30;0.30;;;17.20;73.00;;;;;;4966561;28;20047;-79
2023/11/17 03:31:14;;;;;;;0.40;0.40;;;17.20;73.00;;;;;;4966018;28;20043;-78
2023/11/17 03:33:45;;;;;;;0.40;0.32;;;17.20;73.00;;;;;;4963963;28;20517;-78
2023/11/17 03:36:18;;;;;;;0.28;0.20;;;17.20;73.00;;;;;;4967295;28;20634;-78
2023/11/17 03:38:44;;;;;;;1.88;0.75;;;17.20;73.00;;;;;;4965357;28;20055;-78
2023/11/17 03:41:11;;;;;;;0.43;0.43;;;17.20;73.10;;;;;;4951814;28;20074;-78
2023/11/17 03:43:37;;;;;;;0.30;0.30;;;17.20;73.00;;;;;;4950031;28;20520;-78
2023/11/17 03:46:03;;;;;;;2.28;0.50;;;17.20;73.00;;;;;;4968473;28;20043;-78
2023/11/17 03:48:30;;;;;;;0.30;0.28;;;17.20;73.00;;;;;;4967626;28;20525;-79
2023/11/17 03:50:55;;;;;;;0.20;0.20;;;17.20;73.70;;;;;;4966243;28;20043;-78
2023/11/17 03:53:21;;;;;;;0.50;0.38;;;17.20;73.00;;;;;;4948375;28;20428;-79
2023/11/17 03:55:46;;;;;;;2.05;0.30;;;17.20;73.00;;;;;;4963861;28;24873;-79
2023/11/17 03:58:12;;;;;;;0.75;0.35;;;17.20;73.00;;;;;;4966186;28;20030;-78
2023/11/17 04:00:37;;;;;;;0.47;0.30;;;17.20;72.80;;;;;;4948008;28;20145;-79
2023/11/17 04:03:04;;;;;;;0.30;0.30;;;17.20;73.00;;;;;;4964484;28;20054;-79
2023/11/17 04:05:32;;;;;;;0.30;0.20;;;17.20;72.90;;;;;;4962333;28;20611;-78
2023/11/17 04:07:58;;;;;;;0.40;0.32;;;17.20;73.00;;;;;;4949225;28;20050;-78
2023/11/17 04:10:24;;;;;;;0.47;0.30;;;17.20;73.00;;;;;;4966216;28;20965;-78
2023/11/17 04:12:50;;;;;;;0.60;0.30;;;17.20;72.90;;;;;;4963981;28;20079;-78
2023/11/17 04:15:15;;;;;;;0.30;0.30;;;17.20;72.90;;;;;;4964213;28;20042;-78
2023/11/17 04:17:41;;;;;;;0.20;0.20;;;17.20;72.90;;;;;;4981349;28;20051;-78
2023/11/17 04:20:14;;;;;;;0.10;0.10;;;17.20;72.90;;;;;;4965150;28;20563;-78
2023/11/17 04:22:40;;;;;;;0.22;0.22;;;17.20;72.80;;;;;;4950502;28;20078;-78
2023/11/17 04:25:06;;;;;;;0.63;0.30;;;17.20;72.80;;;;;;4961982;28;20046;-78
2023/11/17 04:27:32;;;;;;;0.30;0.30;;;17.20;72.80;;;;;;4962747;28;20039;-79
2023/11/17 04:29:58;;;;;;;0.65;0.10;;;17.20;72.80;;;;;;4965107;28;20047;-78
2023/11/17 04:32:23;;;;;;;0.20;0.20;;;17.20;72.90;;;;;;4981130;28;20035;-80
2023/11/17 04:34:49;;;;;;;0.20;0.20;;;17.20;72.80;;;;;;4964312;28;20061;-79
2023/11/17 04:37:15;;;;;;;0.20;0.20;;;17.20;72.80;;;;;;4965642;28;20070;-78
2023/11/17 04:39:40;;;;;;;0.30;0.10;;;17.20;72.80;;;;;;4962876;28;20437;-78
2023/11/17 04:42:06;;;;;;;0.15;0.15;;;17.20;72.80;;;;;;4965241;28;20040;-78
2023/11/17 04:44:33;;;;;;;0.28;0.25;;;17.20;72.80;;;;;;4964526;28;20077;-78
2023/11/17 04:46:59;;;;;;;0.10;0.10;;;17.10;72.70;;;;;;4944038;28;20035;-78
2023/11/17 04:49:25;;;;;;;0.57;0.20;;;17.20;72.80;;;;;;4964210;28;20058;-79
2023/11/17 04:51:50;;;;;;;0.20;0.10;;;17.10;72.70;;;;;;4964295;28;20497;-78
2023/11/17 04:54:16;;;;;;;0.30;0.20;;;17.10;72.70;;;;;;4964122;28;20043;-78
2023/11/17 04:56:41;;;;;;;0.28;0.20;;;17.20;72.70;;;;;;4965522;28;20054;-78
2023/11/17 04:59:10;;;;;;;0.10;0.10;;;17.10;72.60;;;;;;4951401;28;20046;-78
2023/11/17 05:01:36;;;;;;;0.10;0.10;;;17.10;72.60;;;;;;4965946;28;20071;-78
2023/11/17 05:04:02;;;;;;;0.57;0.25;;;17.10;72.60;;;;;;4967885;28;20051;-78
2023/11/17 05:06:27;;;;;;;0.20;0.20;;;17.10;72.60;;;;;;4965575;28;20541;-80
2023/11/17 05:08:53;;;;;;;0.30;0.30;;;17.10;72.70;;;;;;4949604;28;20039;-79
2023/11/17 05:11:21;;;;;;;0.22;0.20;;;17.10;72.60;;;;;;4965889;28;20177;-78
2023/11/17 05:13:46;;;;;;;0.25;0.10;;;17.10;72.80;;;;;;4962715;28;20074;-79
2023/11/17 05:16:14;;;;;;;1.00;0.20;;;17.10;72.60;;;;;;4947543;28;20070;-79
2023/11/17 05:18:39;;;;;;;0.52;0.30;;;17.10;72.70;;;;;;4962483;28;20441;-79
2023/11/17 05:21:08;;;;;;;0.55;0.35;;;17.10;72.70;;;;;;4965050;28;20517;-79
2023/11/17 05:23:34;;;;;;;0.40;0.20;;;17.10;72.70;;;;;;4962030;28;20046;-79
2023/11/17 05:26:01;;;;;;;0.20;0.10;;;17.10;72.60;;;;;;4963824;28;20046;-79
2023/11/17 05:28:27;;;;;;;0.38;0.38;;;17.10;72.60;;;;;;4966819;28;20051;-80
2023/11/17 05:30:55;;;;;;;0.10;0.10;;;17.10;72.70;;;;;;4962037;28;20513;-79
2023/11/17 05:33:21;;;;;;;0.20;0.17;;;17.10;72.70;;;;;;4964877;28;20050;-78
2023/11/17 05:35:47;;;;;;;0.55;0.10;;;17.10;72.70;;;;;;4984801;28;20062;-78
2023/11/17 05:38:13;;;;;;;0.40;0.20;;;17.10;72.60;;;;;;4971414;28;20457;-78
2023/11/17 05:40:40;;;;;;;0.20;0.20;;;17.10;72.70;;;;;;4967826;28;20058;-79
2023/11/17 05:43:06;;;;;;;0.20;0.20;;;17.10;72.80;;;;;;4971855;28;20624;-79
2023/11/17 05:45:32;;;;;;;0.40;0.20;;;17.10;72.60;;;;;;4968840;28;20053;-79
2023/11/17 05:47:57;;;;;;;0.73;0.10;;;17.10;72.60;;;;;;4968529;28;20046;-78
2023/11/17 05:50:23;;;;;;;0.25;0.10;;;17.10;72.70;;;;;;4967893;28;20053;-79
2023/11/17 05:52:49;;;;;;;0.30;0.20;;;17.00;72.50;;;;;;4968889;28;20093;-79
2023/11/17 05:55:16;;;;;;;0.68;0.68;;;17.10;73.30;;;;;;4968212;28;20039;-81
2023/11/17 05:57:45;;;;;;;0.70;0.70;;;17.10;73.10;;;;;;4968750;28;20073;-78
2023/11/17 06:00:18;;;;;;;0.80;0.80;;;17.10;73.40;;;;;;4969434;28;20481;-80
2023/11/17 06:02:43;;;;;;;1.00;1.00;;;17.10;73.50;;;;;;4967043;28;20064;-80
2023/11/17 06:05:09;;;;;;;0.93;0.93;;;17.20;73.70;;;;;;4964032;28;20042;-79
2023/11/17 06:07:35;;;;;;;0.90;0.88;;;17.10;73.80;;;;;;4965666;28;20043;-80
2023/11/17 06:10:01;;;;;;;0.77;0.75;;;17.10;73.80;;;;;;4951163;28;20045;-79
2023/11/17 06:12:27;;;;;;;0.50;0.50;;;17.10;73.60;;;;;;4968913;28;20042;-79
2023/11/17 06:14:52;;;;;;;0.40;0.40;;;17.20;73.60;;;;;;4966787;28;20513;-78
2023/11/17 06:17:19;;;;;;;0.90;0.50;;;17.10;73.60;;;;;;4969598;28;20125;-79
2023/11/17 06:19:44;;;;;;;1.85;0.40;;;17.10;73.40;;;;;;4967752;28;20050;-79
2023/11/17 06:22:11;;;;;;;0.32;0.32;;;17.20;73.50;;;;;;4968947;28;20262;-79
2023/11/17 06:24:36;;;;;;;0.47;0.47;;;17.20;73.70;;;;;;4967179;28;20042;-78
2023/11/17 06:27:02;;;;;;;0.38;0.38;;;17.20;73.40;;;;;;4967532;28;20043;-79
2023/11/17 06:29:28;;;;;;;0.30;0.30;;;17.20;73.50;;;;;;4967881;28;20464;-78
2023/11/17 06:31:53;;;;;;;1.55;0.20;;;17.20;73.90;;;;;;4961700;28;20049;-77
2023/11/17 06:34:19;;;;;;;0.25;0.20;;;17.20;73.70;;;;;;4966135;28;20063;-78
2023/11/17 06:36:45;;;;;;;0.20;0.20;;;17.20;73.60;;;;;;4967095;28;20053;-77
2023/11/17 06:39:14;;;;;;;0.82;0.30;;;17.20;73.50;;;;;;4960773;28;20038;-77
2023/11/17 06:41:49;;;;;;;0.30;0.30;;;17.20;73.90;;;;;;4960787;28;20050;-78
2023/11/17 06:44:19;;;;;;;1.38;0.30;;;17.20;74.00;;;;;;4964207;28;20070;-77
2023/11/17 06:46:45;;;;;;;0.52;0.38;;;17.20;74.00;;;;;;4963069;28;20070;-77
2023/11/17 06:49:15;;;;;;;0.32;0.30;;;17.20;73.60;;;;;;4931659;28;20063;-78
2023/11/17 06:51:41;;;;;;;0.82;0.30;;;17.10;73.40;;;;;;4961824;28;20054;-77
2023/11/17 06:54:10;;;;;;;0.32;0.22;;;17.20;73.70;;;;;;4949199;28;20038;-77
2023/11/17 06:56:40;;;;;;;0.38;0.22;;;17.10;73.50;;;;;;4959985;28;20043;-77
2023/11/17 06:59:10;;;;;;;0.30;0.30;;;17.10;73.40;;;;;;4965879;28;20505;-77
2023/11/17 07:01:36;;;;;;;0.40;0.22;;;17.20;73.50;;;;;;4961992;28;20133;-78
2023/11/17 07:04:06;;;;;;;0.35;0.20;;;17.10;73.50;;;;;;4963522;28;20130;-77
2023/11/17 07:06:33;;;;;;;0.40;0.40;;;17.10;73.50;;;;;;4963062;28;20027;-77
2023/11/17 07:08:59;;;;;;;0.32;0.30;;;17.10;73.40;;;;;;4931162;28;20528;-77
2023/11/17 07:11:25;;;;;;;0.63;0.40;;;17.10;74.20;;;;;;4949954;28;20038;-79
2023/11/17 07:13:55;;;;;;;0.30;0.30;;;17.10;73.50;;;;;;4967747;28;20039;-78
2023/11/17 07:16:21;;;;;;;0.40;0.30;;;17.10;73.90;;;;;;4606883;28;9999702;-79
2023/11/17 07:18:49;;;;;;;0.30;0.20;;;17.10;74.00;;;;;;4944667;28;20038;-79
2023/11/17 07:21:15;;;;;;;0.28;0.28;;;17.10;73.60;;;;;;4964749;28;20052;-78
2023/11/17 07:23:43;;;;;;;0.32;0.22;;;17.20;73.70;;;;;;4961101;28;20039;-78
2023/11/17 07:26:17;;;;;;;0.63;0.25;;;17.20;74.30;;;;;;4959647;28;20057;-79
2023/11/17 07:28:47;;;;;;;0.75;0.20;;;17.20;73.60;;;;;;4963217;28;20039;-79
2023/11/17 07:31:17;;;;;;;0.25;0.25;;;17.20;73.60;;;;;;4964801;28;20039;-79
2023/11/17 07:33:44;;;;;;;1.38;0.20;;;17.20;73.60;;;;;;4966635;28;20039;-79
2023/11/17 07:36:10;;;;;;;0.32;0.20;;;17.10;73.50;;;;;;4981103;28;20042;-78
2023/11/17 07:38:37;;;;;;;0.20;0.20;;;17.10;73.20;;;;;;4964004;28;20486;-80
2023/11/17 07:41:03;;;;;;;0.10;0.10;;;17.10;73.40;;;;;;4965491;28;20058;-78
2023/11/17 07:43:30;;;;;;;0.20;0.20;;;17.10;73.20;;;;;;4948982;28;20116;-78
2023/11/17 07:45:55;;;;;;;0.75;0.30;;;17.10;73.40;;;;;;4968124;28;20375;-78
2023/11/17 07:48:21;;;;;;;0.20;0.20;;;17.10;73.40;;;;;;4951147;28;20138;-78
2023/11/17 07:50:47;;;;;;;0.40;0.30;;;17.10;73.40;;;;;;4965910;28;20053;-79
2023/11/17 07:53:13;;;;;;;5.63;0.43;;;17.10;73.30;;;;;;4966220;28;20624;-78
2023/11/17 07:55:41;;;;;;;0.30;0.13;;;17.10;73.40;;;;;;4966347;28;20539;-79
2023/11/17 07:58:07;;;;;;;0.90;0.20;;;17.10;73.40;;;;;;4949697;28;20081;-79
2023/11/17 08:00:34;;;;;;;0.20;0.20;;;17.10;73.40;;;;;;4965365;28;20074;-78
2023/11/17 08:03:00;;;;;;;0.30;0.20;;;17.10;73.40;;;;;;4965293;28;20531;-78
2023/11/17 08:05:25;;;;;;;0.43;0.20;;;17.10;73.20;;;;;;4964571;28;20038;-78
2023/11/17 08:07:53;;;;;;;1.10;0.20;;;17.10;73.20;;;;;;4964993;28;20568;-79
2023/11/17 08:10:20;;;;;;;0.52;0.35;;;17.10;73.40;;;;;;4964852;28;20062;-78
2023/11/17 08:12:46;;;;;;;0.17;0.15;;;17.10;73.30;;;;;;4963900;28;20155;-78
2023/11/17 08:15:12;;;;;;;0.20;0.20;;;17.10;73.40;;;;;;4965599;28;20034;-78
2023/11/17 08:17:37;;;;;;;0.40;0.30;;;17.10;73.40;;;;;;4963678;28;20409;-80
2023/11/17 08:20:10;;;;;;;0.47;0.30;;;17.10;73.30;;;;;;4964553;28;20051;-79
2023/11/17 08:22:36;;;;;;;0.30;0.22;;;17.10;73.00;;;;;;4965795;28;20160;-78
2023/11/17 08:25:02;;;;;;;0.30;0.30;;;17.10;73.40;;;;;;4950446;28;20138;-78
2023/11/17 08:27:28;;;;;;;0.20;0.15;;;17.10;73.30;;;;;;4966888;28;20043;-79
2023/11/17 08:29:54;;;;;;;0.20;0.20;;;17.10;73.20;;;;;;4946887;28;20039;-78
2023/11/17 08:32:19;;;;;;;0.20;0.17;;;17.10;73.10;;;;;;4966498;28;20109;-78
2023/11/17 08:34:46;;;;;;;0.30;0.22;;;17.10;73.20;;;;;;4964902;28;20043;-78
2023/11/17 08:37:12;;;;;;;0.20;0.20;;;17.10;73.10;;;;;;4968712;28;20046;-78
2023/11/17 08:39:38;;;;;;;0.75;0.30;;;17.10;73.30;;;;;;4950147;28;20050;-79
2023/11/17 08:42:04;;;;;;;0.28;0.25;;;17.10;73.20;;;;;;4966648;28;20102;-78
2023/11/17 08:44:29;;;;;;;0.10;0.10;;;17.10;73.20;;;;;;4966083;28;20089;-78
2023/11/17 08:46:55;;;;;;;0.20;0.20;;;17.10;73.10;;;;;;4964671;28;20528;-78
2023/11/17 08:49:20;;;;;;;0.20;0.20;;;17.10;73.30;;;;;;4962834;28;20468;-78
2023/11/17 08:51:47;;;;;;;0.38;0.30;;;17.10;73.20;;;;;;4962567;28;20047;-79
2023/11/17 08:54:17;;;;;;;0.38;0.25;;;17.10;73.10;;;;;;4963649;28;20497;-78
2023/11/17 08:56:47;;;;;;;0.95;0.30;;;17.10;73.10;;;;;;4965165;28;20097;-78
2023/11/17 08:59:13;;;;;;;0.75;0.20;;;17.10;73.10;;;;;;4963453;28;20118;-79
2023/11/17 09:01:39;;;;;;;0.40;0.20;;;17.10;73.30;;;;;;4948763;28;20046;-78
2023/11/17 09:04:05;;;;;;;0.75;0.25;;;17.10;73.30;;;;;;4934256;28;20094;-78
2023/11/17 09:06:30;;;;;;;0.35;0.20;;;17.10;73.00;;;;;;4965910;28;20159;-78
2023/11/17 09:08:56;;;;;;;0.60;0.20;;;17.10;73.30;;;;;;4968178;28;20171;-78
2023/11/17 09:11:21;;;;;;;0.28;0.20;;;17.10;73.10;;;;;;4968353;28;20105;-78
2023/11/17 09:13:47;;;;;;;1.67;0.30;;;17.10;74.20;;;;;;4969506;28;20638;-78
2023/11/17 09:16:12;;;;;;;1.67;0.25;;;17.10;73.30;;;;;;4972382;28;20039;-78
2023/11/17 09:18:38;;;;;;;0.10;0.10;;;17.20;73.40;;;;;;4966889;28;20501;-78
2023/11/17 09:21:07;;;;;;;0.13;0.13;;;17.20;73.90;;;;;;4968930;28;20141;-78
2023/11/17 09:23:36;;;;;;;0.13;0.13;;;17.20;73.60;;;;;;4967071;28;20053;-78
2023/11/17 09:26:07;;;;;;;0.15;0.15;;;17.20;73.60;;;;;;4951650;28;20051;-79
2023/11/17 09:28:33;;;;;;;0.25;0.13;;;17.20;73.30;;;;;;4965144;28;20039;-78
2023/11/17 09:30:58;;;;;;;0.10;0.10;;;17.20;72.80;;;;;;4970421;28;20509;-78
2023/11/17 09:33:24;;;;;;;0.20;0.20;;;17.30;72.80;;;;;;4966125;28;20054;-78
2023/11/17 09:35:50;;;;;;;0.45;0.30;;;17.30;72.80;;;;;;4966477;28;20513;-79
2023/11/17 09:38:16;;;;;;;0.38;0.30;;;17.30;73.10;;;;;;4970400;28;20523;-78
2023/11/17 09:40:42;;;;;;;0.20;0.20;;;17.30;72.30;;;;;;4968123;28;20078;-79
2023/11/17 09:43:16;;;;;;;0.30;0.30;;;17.30;72.10;;;;;;4954464;28;20062;-78
2023/11/17 09:45:44;;;;;;;0.30;0.20;;;17.40;72.10;;;;;;4968004;28;20125;-79
2023/11/17 09:48:11;;;;;;;0.45;0.25;;;17.40;72.00;;;;;;4980277;28;20130;-78
2023/11/17 09:50:40;;;;;;;0.20;0.15;;;17.40;71.80;;;;;;4969890;28;20126;-78
2023/11/17 09:53:05;;;;;;;0.45;0.20;;;17.50;71.70;;;;;;4963591;28;20090;-78
2023/11/17 09:55:31;;;;;;;0.30;0.22;;;17.50;71.70;;;;;;4969548;28;20461;-78
2023/11/17 09:58:06;;;;;;;0.20;0.20;;;17.50;71.60;;;;;;4951835;28;20126;-78
2023/11/17 10:00:33;;;;;;;0.20;0.20;;;17.60;71.60;;;;;;4948979;28;20572;-78
2023/11/17 10:03:02;;;;;;;0.57;0.40;;;17.60;71.60;;;;;;4969411;28;20077;-78
2023/11/17 10:05:29;;;;;;;0.45;0.30;;;17.60;71.50;;;;;;4969897;28;20408;-78
2023/11/17 10:07:57;;;;;;;0.20;0.17;;;17.60;71.50;;;;;;4966927;28;20078;-79
2023/11/17 10:10:23;;;;;;;0.57;0.35;;;17.60;71.50;;;;;;4969639;28;20085;-78
2023/11/17 10:12:50;;;;;;;0.15;0.15;;;17.60;71.40;;;;;;4965776;28;20460;-79
2023/11/17 10:15:18;;;;;;;0.40;0.20;;;17.60;71.40;;;;;;4950088;28;20413;-78
2023/11/17 10:17:46;;;;;;;0.20;0.20;;;17.60;71.40;;;;;;4968165;28;20130;-81
2023/11/17 10:20:15;;;;;;;0.25;0.20;;;17.70;71.40;;;;;;4950337;28;20137;-78
2023/11/17 10:22:42;;;;;;;0.15;0.10;;;17.70;71.30;;;;;;4969710;28;20122;-78
2023/11/17 10:25:10;;;;;;;0.30;0.30;;;17.70;72.00;;;;;;4964290;28;20059;-78
2023/11/17 10:27:38;;;;;;;0.20;0.20;;;17.70;71.10;;;;;;4968408;28;20409;-78
2023/11/17 10:30:07;;;;;;;0.13;0.13;;;17.70;71.20;;;;;;4965985;28;20775;-78
2023/11/17 10:32:34;;;;;;;0.20;0.20;;;17.70;71.30;;;;;;4968487;28;20042;-78
2023/11/17 10:35:34;;;;;;;0.47;0.40;;;17.70;71.20;;;;;;4951361;28;20047;-78
2023/11/17 10:38:00;;;;;;;0.22;0.22;;;17.70;71.20;;;;;;4969832;28;20047;-79
2023/11/17 10:40:28;;;;;;;0.40;0.20;;;17.70;71.10;;;;;;4949757;28;20053;-78
2023/11/17 10:43:11;;;;;;;0.20;0.20;;;17.70;71.00;;;;;;4967951;28;20154;-78
2023/11/17 10:45:38;;;;;;;0.50;0.50;;;17.80;71.20;;;;;;4967040;28;20065;-78
2023/11/17 10:48:06;;;;;;;0.13;0.13;;;17.80;71.10;;;;;;4949201;28;20050;-78
2023/11/17 10:50:33;;;;;;;0.68;0.30;;;17.80;71.00;;;;;;4964027;28;20544;-78
2023/11/17 10:53:13;;;;;;;0.20;0.20;;;17.80;71.00;;;;;;4967275;28;20105;-79
2023/11/17 10:55:42;;;;;;;0.30;0.20;;;17.80;71.00;;;;;;4949757;28;20042;-78
2023/11/17 10:58:08;;;;;;;0.30;0.30;;;17.80;70.90;;;;;;4949877;28;20093;-78
2023/11/17 11:00:37;;;;;;;0.35;0.10;;;17.80;71.10;;;;;;4952118;28;20145;-78
2023/11/17 11:03:04;;;;;;;0.10;0.10;;;17.80;71.90;;;;;;4966691;28;20480;-78
2023/11/17 11:05:29;;;;;;;0.20;0.20;;;17.80;71.20;;;;;;4966283;28;20120;-78
2023/11/17 11:07:57;;;;;;;0.10;0.10;;;17.80;71.20;;;;;;4968107;28;20066;-78
2023/11/17 11:10:25;;;;;;;0.20;0.13;;;17.80;71.00;;;;;;4965923;28;20118;-78
2023/11/17 11:12:52;;;;;;;1.63;0.30;;;17.80;70.90;;;;;;4967415;28;20516;-78
2023/11/17 11:15:17;;;;;;;0.20;0.20;;;17.80;70.90;;;;;;4968490;28;20046;-78
2023/11/17 11:17:56;;;;;;;0.20;0.20;;;17.80;70.80;;;;;;4969972;28;20053;-77
2023/11/17 11:20:21;;;;;;;0.85;0.63;;;17.90;70.80;;;;;;4963689;28;20057;-77
2023/11/17 11:22:50;;;;;;;0.77;0.38;;;17.90;70.90;;;;;;4966228;28;20042;-77
2023/11/17 11:25:16;;;;;;;0.10;0.10;;;17.90;70.70;;;;;;4968812;28;20130;-77
2023/11/17 11:27:43;;;;;;;0.30;0.20;;;17.90;70.80;;;;;;4962037;28;20042;-77
2023/11/17 11:30:09;;;;;;;0.30;0.20;;;17.90;70.80;;;;;;4964861;28;20493;-77
2023/11/17 11:32:35;;;;;;;0.30;0.20;;;17.90;70.70;;;;;;4967104;28;20044;-78
2023/11/17 11:35:00;;;;;;;0.15;0.10;;;17.90;70.70;;;;;;4964093;28;20129;-77
2023/11/17 11:37:32;;;;;;;0.45;0.30;;;17.90;70.70;;;;;;4968768;28;20035;-77
2023/11/17 11:40:01;;;;;;;0.10;0.10;;;17.90;70.80;;;;;;4948311;28;20058;-78
2023/11/17 11:42:26;;;;;;;0.40;0.20;;;17.90;70.70;;;;;;4966519;28;20035;-77
2023/11/17 11:44:52;;;;;;;1.05;0.47;;;17.90;70.70;;;;;;4967718;28;20066;-78
2023/11/17 11:47:18;;;;;;;0.65;0.13;;;17.90;70.60;;;;;;4982603;28;20042;-78
2023/11/17 11:49:44;;;;;;;0.30;0.30;;;17.90;70.50;;;;;;4953560;28;20141;-78
2023/11/17 11:52:13;;;;;;;0.80;0.30;;;18.00;70.60;;;;;;4952440;28;20134;-77
2023/11/17 11:54:38;;;;;;;0.32;0.20;;;18.00;70.50;;;;;;4959596;28;20097;-78
2023/11/17 11:57:28;;;;;;;0.57;0.47;;;17.90;70.40;;;;;;4945114;28;20497;-77
2023/11/17 12:00:06;;;;;;;0.25;0.20;;;18.00;70.50;;;;;;4962410;28;20054;-77
2023/11/17 12:02:33;;;;;;;0.30;0.30;;;18.00;70.50;;;;;;4962903;28;20042;-77
2023/11/17 12:05:08;;;;;;;0.25;0.10;;;18.00;70.30;;;;;;4965179;28;20069;-76
2023/11/17 12:07:37;;;;;;;0.20;0.10;;;18.00;70.50;;;;;;4959329;28;20055;-77
2023/11/17 12:10:05;;;;;;;0.17;0.17;;;18.00;70.50;;;;;;4964705;28;20046;-78
2023/11/17 12:12:32;;;;;;;0.20;0.15;;;18.00;70.40;;;;;;4966096;28;20038;-78
2023/11/17 12:14:58;;;;;;;0.60;0.28;;;18.00;70.40;;;;;;4966495;28;20054;-78
2023/11/17 12:17:30;;;;;;;0.30;0.20;;;18.00;70.20;;;;;;4961597;28;20038;-77
2023/11/17 12:20:17;;;;;;;0.22;0.20;;;18.00;70.30;;;;;;4964349;28;20105;-78
2023/11/17 12:22:56;;;;;;;0.40;0.28;;;18.00;70.40;;;;;;4966585;28;20070;-77
2023/11/17 12:25:21;;;;;;;0.10;0.10;;;18.00;70.30;;;;;;4950155;28;20155;-77
2023/11/17 12:27:48;;;;;;;0.30;0.20;;;18.00;70.40;;;;;;4966525;28;20063;-77
2023/11/17 12:30:14;;;;;;;0.30;0.30;;;18.00;70.30;;;;;;4967478;28;20138;-77
2023/11/17 12:32:40;;;;;;;0.20;0.20;;;18.00;70.90;;;;;;4966909;28;20118;-77
2023/11/17 12:35:06;;;;;;;0.20;0.10;;;18.00;70.50;;;;;;4949159;28;20122;-77
2023/11/17 12:37:32;;;;;;;0.30;0.10;;;17.90;70.40;;;;;;4947918;28;20058;-78
2023/11/17 12:39:58;;;;;;;0.28;0.10;;;18.00;70.40;;;;;;4962669;28;20043;-78
2023/11/17 12:42:24;;;;;;;0.28;0.20;;;17.90;70.40;;;;;;4969871;28;20045;-77
2023/11/17 12:44:50;;;;;;;0.30;0.20;;;18.00;70.50;;;;;;4971649;28;20177;-77
2023/11/17 12:47:15;;;;;;;0.20;0.17;;;18.00;70.40;;;;;;4968101;28;20118;-77
2023/11/17 12:49:51;;;;;;;0.20;0.13;;;18.00;70.40;;;;;;4952477;28;20166;-78